Izium, Ukraine
Current Conditions -  °F | °C
As of 1:00 PM on Sunday 23 Nov 2014 (Local Time) from UKHH Reporting Station
Scattered Clouds Scattered Clouds  
Wind Chill: 19°   Ceiling: Unl
Heat Index: 25°   Visibility: 6mi
Dew Point: 16°   Wind: 4mph
Humidity: 69%   Direction: 40°NE
Pressure: 30.42"   Gusts: NA
Location:  49.18°N, 37.3°E
Report Text: UKHH 231000Z 04002MPS 350V090 9999 SCT010 M04/M09 Q1030 07410062 BECMG 2100 BR
Loading
Personal Weather Stations






























Interactive Weather Map New forecast layout! Learn more

10-Day Weather Forecast

Advertisements
Track Severe Weather on mobile